Time;durP1;ratioP1;P1;durP2;ratioP2;P2;SDS_P1;SDS_P2;PMS_P1;PMS_P2;Temp;Humidity;BMP_temperature;BMP_pressure;BME280_temperature;BME280_humidity;BME280_pressure;Samples;Min_cycle;Max_cycle;Signal;HPM_P1;HPM_P2
2023/12/12 00:02:27;;;;;;;9.20;3.33;;;;;;;7.38;100.00;95085.75;7336842;19;20435;-89
2023/12/12 00:04:55;;;;;;;11.53;3.67;;;;;;;7.16;100.00;95050.13;7435665;19;20356;-90
2023/12/12 00:07:23;;;;;;;11.87;2.93;;;;;;;7.65;100.00;95129.03;7435544;19;20387;-89
2023/12/12 00:09:50;;;;;;;7.43;3.03;;;;;;;7.96;100.00;95172.50;7435498;19;20373;-89
2023/12/12 00:12:18;;;;;;;11.60;4.10;;;;;;;7.92;100.00;95161.91;7433534;19;20408;-90
2023/12/12 00:14:46;;;;;;;8.03;2.87;;;;;;;7.86;100.00;95150.09;7435287;19;20370;-89
2023/12/12 00:17:13;;;;;;;9.20;3.20;;;;;;;8.19;100.00;95201.84;7435184;19;20348;-89
2023/12/12 00:19:45;;;;;;;10.53;2.80;;;;;;;8.38;100.00;95228.41;7434190;19;20345;-90
2023/12/12 00:22:13;;;;;;;9.40;3.00;;;;;;;7.68;100.00;95135.47;7433380;19;20412;-90
2023/12/12 00:24:40;;;;;;;14.90;3.10;;;;;;;7.42;100.00;95088.50;7434948;19;20363;-90
2023/12/12 00:27:08;;;;;;;7.23;2.87;;;;;;;7.63;100.00;95125.19;7435001;19;20368;-89
2023/12/12 00:29:35;;;;;;;7.03;3.27;;;;;;;7.62;100.00;95124.44;7434767;19;20351;-89
2023/12/12 00:32:03;;;;;;;17.17;2.87;;;;;;;7.48;100.00;95110.78;7433612;19;20428;-89
2023/12/12 00:34:31;;;;;;;10.00;3.93;;;;;;;8.28;100.00;95223.50;7434662;19;20369;-90
2023/12/12 00:36:58;;;;;;;8.00;4.00;;;;;;;7.76;100.00;95147.78;7434741;19;20358;-90
2023/12/12 00:39:26;;;;;;;13.43;3.23;;;;;;;7.96;100.00;95180.31;7433928;19;20371;-91
2023/12/12 00:41:55;;;;;;;10.50;3.70;;;;;;;8.14;100.00;95202.00;7430922;19;20399;-91
2023/12/12 00:44:23;;;;;;;8.03;3.53;;;;;;;7.93;100.00;95181.72;7434246;19;20347;-89
2023/12/12 00:46:50;;;;;;;14.87;3.07;;;;;;;7.61;100.00;95127.34;7434222;19;20356;-90
2023/12/12 00:49:18;;;;;;;10.73;3.83;;;;;;;7.67;100.00;95157.44;7434073;19;20415;-91
2023/12/12 00:51:46;;;;;;;12.53;3.10;;;;;;;7.83;100.00;95182.03;7433398;19;20383;-90
2023/12/12 01:46:22;;;;;;;5.70;3.07;;;;;;;7.83;100.00;95221.19;7432205;19;20364;-88
2023/12/12 01:48:49;;;;;;;3.77;2.10;;;;;;;7.57;100.00;95176.81;7432043;19;20426;-90
2023/12/12 01:51:18;;;;;;;10.77;3.57;;;;;;;7.43;100.00;95161.28;7431354;19;20434;-90
2023/12/12 01:53:48;;;;;;;11.73;3.87;;;;;;;7.51;100.00;95193.69;7432078;19;20344;-90
2023/12/12 01:56:16;;;;;;;7.03;3.13;;;;;;;7.75;100.00;95235.81;7431966;19;20371;-91
2023/12/12 01:58:48;;;;;;;12.23;3.67;;;;;;;7.72;100.00;95238.28;7431702;19;20363;-91
2023/12/12 02:01:17;;;;;;;6.77;2.53;;;;;;;7.72;100.00;95239.03;7430226;19;20411;-92
2023/12/12 02:03:45;;;;;;;11.90;3.23;;;;;;;7.40;100.00;95192.44;7431662;19;20351;-90
2023/12/12 02:06:21;;;;;;;6.47;3.50;;;;;;;7.25;100.00;95170.16;7432048;19;20345;-89
2023/12/12 02:08:51;;;;;;;13.03;3.70;;;;;;;6.94;100.00;95117.31;7431676;19;20425;-89
2023/12/12 02:11:19;;;;;;;11.37;4.27;;;;;;;7.95;100.00;95272.84;7430785;19;20395;-89
2023/12/12 02:13:48;;;;;;;6.00;2.90;;;;;;;6.93;100.00;95144.47;7431249;19;20371;-90
2023/12/12 02:16:17;;;;;;;9.03;2.97;;;;;;;7.12;100.00;95171.81;7431255;19;20365;-89
2023/12/12 02:18:44;;;;;;;15.03;5.20;;;;;;;7.23;100.00;95224.50;7431044;19;20363;-89
2023/12/12 02:21:19;;;;;;;10.73;2.57;;;;;;;7.13;100.00;95167.38;7429704;19;20399;-88
2023/12/12 02:23:47;;;;;;;11.10;3.20;;;;;;;7.08;100.00;95186.56;7431100;19;20349;-88
2023/12/12 02:26:16;;;;;;;12.37;3.53;;;;;;;7.15;100.00;95176.41;7431038;19;20360;-88
2023/12/12 02:28:44;;;;;;;6.00;2.63;;;;;;;7.20;100.00;95198.25;7430867;19;20370;-89
2023/12/12 02:31:12;;;;;;;8.87;3.67;;;;;;;7.15;100.00;95175.66;7430166;19;20410;-90
2023/12/12 02:33:40;;;;;;;7.00;3.57;;;;;;;7.22;100.00;95180.44;7430768;19;20364;-89
2023/12/12 02:36:16;;;;;;;8.13;3.60;;;;;;;7.41;100.00;95240.97;7430809;19;20406;-89
2023/12/12 02:38:44;;;;;;;10.03;2.93;;;;;;;6.82;100.00;95183.09;7430804;19;20365;-89
2023/12/12 02:41:13;;;;;;;6.23;3.20;;;;;;;7.26;100.00;95252.59;7429085;19;20407;-89
2023/12/12 02:43:40;;;;;;;8.80;3.47;;;;;;;6.95;100.00;95174.38;7430545;19;20364;-89
2023/12/12 02:46:08;;;;;;;17.13;3.60;;;;;;;7.31;100.00;95226.38;7428653;19;20403;-90
2023/12/12 02:48:35;;;;;;;7.50;3.47;;;;;;;7.19;100.00;95207.16;7430386;19;20366;-89
2023/12/12 02:51:04;;;;;;;11.67;3.33;;;;;;;6.85;100.00;95166.84;7430026;19;20376;-89
2023/12/12 02:53:31;;;;;;;6.73;3.17;;;;;;;7.21;100.00;95257.94;7430740;19;20352;-88
2023/12/12 02:55:59;;;;;;;6.13;2.57;;;;;;;6.70;100.00;95194.09;7430149;19;20407;-90
2023/12/12 02:58:26;;;;;;;7.50;3.40;;;;;;;6.85;100.00;95238.00;7429953;19;20395;-88
2023/12/12 03:00:57;;;;;;;10.67;3.00;;;;;;;5.99;100.00;95122.91;7427741;19;20401;-91
2023/12/12 03:03:25;;;;;;;6.53;2.37;;;;;;;6.77;100.00;95246.59;7430515;19;20344;-88
2023/12/12 03:05:53;;;;;;;8.83;2.50;;;;;;;6.34;100.00;95180.41;7435518;19;20361;-88
2023/12/12 03:08:21;;;;;;;10.03;2.80;;;;;;;6.22;100.00;95162.72;7437496;19;20411;-88
2023/12/12 03:10:48;;;;;;;8.20;3.10;;;;;;;6.34;100.00;95175.19;7436985;19;20348;-90
2023/12/12 03:13:16;;;;;;;8.63;2.37;;;;;;;6.41;100.00;95188.56;7437393;19;20355;-90
2023/12/12 03:15:44;;;;;;;5.87;2.73;;;;;;;6.65;100.00;95216.91;7437212;19;20362;-88
2023/12/12 03:18:12;;;;;;;10.77;3.13;;;;;;;6.64;100.00;95187.47;7437234;19;20359;-88
2023/12/12 03:20:39;;;;;;;8.77;3.33;;;;;;;6.65;100.00;95191.63;7435709;19;20428;-89
2023/12/12 03:23:07;;;;;;;7.80;3.43;;;;;;;6.97;100.00;95231.47;7436977;19;20536;-91
2023/12/12 03:25:34;;;;;;;10.87;2.83;;;;;;;6.75;100.00;95180.13;7437052;19;20339;-90
2023/12/12 03:28:02;;;;;;;6.37;3.10;;;;;;;7.02;100.00;95200.78;7436874;19;20363;-88
2023/12/12 03:30:30;;;;;;;8.03;2.80;;;;;;;7.16;100.00;95208.50;7436693;19;20377;-89
2023/12/12 03:33:01;;;;;;;9.67;2.70;;;;;;;7.06;100.00;95255.75;7436674;19;20343;-88
2023/12/12 03:35:28;;;;;;;8.93;3.23;;;;;;;6.33;100.00;95174.41;7436611;19;20359;-88
2023/12/12 03:37:56;;;;;;;9.83;3.10;;;;;;;6.45;100.00;95205.91;7436541;19;20360;-90
2023/12/12 03:40:24;;;;;;;4.20;2.17;;;;;;;5.85;100.00;95115.19;7435595;19;20353;-89
2023/12/12 03:42:52;;;;;;;6.87;2.47;;;;;;;5.93;100.00;95124.09;7433757;19;20419;-88
2023/12/12 03:45:22;;;;;;;7.43;2.30;;;;;;;6.52;100.00;95163.81;7434647;19;20450;-88
2023/12/12 03:47:50;;;;;;;6.90;3.13;;;;;;;6.61;100.00;95182.06;7436107;19;20381;-88
2023/12/12 03:50:18;;;;;;;7.93;2.20;;;;;;;6.35;100.00;95164.47;7436530;19;20351;-89
2023/12/12 03:52:45;;;;;;;12.40;2.80;;;;;;;6.82;100.00;95245.69;7433446;19;20403;-90
2023/12/12 03:55:13;;;;;;;9.83;3.60;;;;;;;6.30;100.00;95197.72;7435987;19;20341;-89
2023/12/12 03:57:41;;;;;;;6.03;3.67;;;;;;;6.12;100.00;95173.41;7435797;19;20363;-89
2023/12/12 04:00:10;;;;;;;10.40;2.90;;;;;;;6.36;100.00;95178.25;7435826;19;20344;-88
2023/12/12 04:02:38;;;;;;;9.43;2.93;;;;;;;6.48;100.00;95210.53;7433426;19;20448;-90
2023/12/12 04:05:10;;;;;;;7.50;2.60;;;;;;;6.27;100.00;95188.66;7435699;19;20344;-88
2023/12/12 04:07:38;;;;;;;11.50;5.53;;;;;;;6.09;100.00;95147.94;7435531;19;20360;-89
2023/12/12 04:10:08;;;;;;;29.40;16.30;;;;;;;6.49;100.00;95159.16;7435243;19;20357;-88
2023/12/12 04:12:36;;;;;;;12.10;8.10;;;;;;;6.80;100.00;95191.22;7433092;19;20455;-89
2023/12/12 04:15:04;;;;;;;9.67;3.20;;;;;;;6.62;100.00;95168.72;7435173;19;20355;-89
2023/12/12 04:17:32;;;;;;;5.93;2.70;;;;;;;6.51;100.00;95157.81;7432373;19;20368;-89
2023/12/12 04:20:00;;;;;;;4.47;2.07;;;;;;;6.30;100.00;95132.56;7434773;19;20356;-88
2023/12/12 04:22:28;;;;;;;10.27;3.33;;;;;;;6.79;100.00;95228.03;7433032;19;20406;-89
2023/12/12 04:24:56;;;;;;;4.53;2.00;;;;;;;6.47;100.00;95195.97;7434949;19;20364;-90
2023/12/12 04:27:23;;;;;;;7.13;3.10;;;;;;;6.60;100.00;95198.78;7434698;19;20360;-90
2023/12/12 04:29:51;;;;;;;4.53;2.40;;;;;;;6.86;100.00;95236.94;7435278;19;20347;-89
2023/12/12 04:32:19;;;;;;;10.97;3.47;;;;;;;6.44;100.00;95169.72;7432940;19;20447;-92
2023/12/12 04:34:46;;;;;;;23.47;9.50;;;;;;;6.52;100.00;95184.66;7434527;19;20356;-88
2023/12/12 04:37:14;;;;;;;15.33;6.33;;;;;;;6.21;100.00;95148.16;7434567;19;20359;-90
2023/12/12 04:39:42;;;;;;;11.27;5.67;;;;;;;6.15;100.00;95191.81;7435033;19;20366;-88
2023/12/12 04:42:13;;;;;;;9.27;4.10;;;;;;;6.02;100.00;95212.69;7432249;19;20410;-89
2023/12/12 04:44:44;;;;;;;5.43;2.57;;;;;;;6.48;100.00;95290.56;7433347;19;20393;-89
2023/12/12 04:47:13;;;;;;;7.83;2.70;;;;;;;5.77;100.00;95193.97;7434108;19;20356;-90
2023/12/12 04:49:41;;;;;;;17.03;10.87;;;;;;;6.37;100.00;95240.53;7434181;19;20352;-90
2023/12/12 04:52:09;;;;;;;11.03;6.60;;;;;;;6.10;100.00;95191.91;7433023;19;20400;-91
2023/12/12 04:54:38;;;;;;;5.03;4.43;;;;;;;6.01;100.00;95185.88;7434495;19;20363;-89
2023/12/12 04:57:06;;;;;;;10.03;4.40;;;;;;;5.71;100.00;95181.38;7433847;19;20376;-89
2023/12/12 04:59:35;;;;;;;7.53;4.60;;;;;;;5.64;100.00;95194.78;7434196;19;20364;-90
2023/12/12 05:02:09;;;;;;;15.67;3.80;;;;;;;4.82;100.00;95080.53;7431918;19;20413;-91
2023/12/12 05:04:39;;;;;;;6.80;2.30;;;;;;;5.19;100.00;95142.69;7434111;19;20387;-89
2023/12/12 05:07:08;;;;;;;4.90;2.20;;;;;;;5.82;100.00;95226.94;7433465;19;20355;-90
2023/12/12 05:09:43;;;;;;;4.70;3.70;;;;;;;5.63;100.00;95199.22;7433511;19;20380;-89
2023/12/12 05:12:17;;;;;;;11.27;3.93;;;;;;;5.48;100.00;95168.34;7431959;19;20382;-89
2023/12/12 05:14:46;;;;;;;4.77;2.20;;;;;;;5.09;100.00;95122.84;7433230;19;20363;-89
2023/12/12 05:17:25;;;;;;;3.87;2.63;;;;;;;6.00;100.00;95244.25;7433238;19;20384;-89
2023/12/12 05:20:03;;;;;;;7.57;4.97;;;;;;;5.80;100.00;95231.66;7433080;19;20389;-91
2023/12/12 05:22:44;;;;;;;7.17;4.20;;;;;;;5.68;100.00;95186.09;7430744;19;20431;-90
2023/12/12 05:25:33;;;;;;;6.30;3.20;;;;;;;5.92;100.00;95198.06;7432926;19;20351;-89
2023/12/12 05:28:21;;;;;;;7.40;3.20;;;;;;;6.12;100.00;95222.88;7431711;19;20395;-89
2023/12/12 05:31:11;;;;;;;11.37;3.93;;;;;;;5.74;100.00;95191.97;7432460;19;20372;-89
2023/12/12 05:33:58;;;;;;;8.67;3.73;;;;;;;6.10;100.00;95230.97;7432772;19;20366;-89
2023/12/12 05:36:43;;;;;;;6.30;3.07;;;;;;;6.13;100.00;95233.00;7433113;19;20360;-90
2023/12/12 05:39:30;;;;;;;6.40;2.90;;;;;;;5.85;100.00;95195.88;7432491;19;20348;-90
2023/12/12 05:42:29;;;;;;;10.80;3.73;;;;;;;6.41;100.00;95303.25;7431316;19;20428;-89
2023/12/12 05:45:25;;;;;;;6.50;2.90;;;;;;;5.90;100.00;95260.09;7430430;19;20361;-89
2023/12/12 05:48:31;;;;;;;9.50;4.23;;;;;;;5.22;100.00;95190.72;7432086;19;20362;-88
2023/12/12 05:52:00;;;;;;;10.33;7.40;;;;;;;6.15;100.00;95296.00;7431374;19;20428;-90
2023/12/12 05:54:58;;;;;;;13.13;7.50;;;;;;;5.73;100.00;95234.69;7431893;19;20355;-90
2023/12/12 05:57:57;;;;;;;10.50;6.30;;;;;;;5.49;100.00;95227.13;7431906;19;20362;-91
2023/12/12 06:00:59;;;;;;;7.57;5.80;;;;;;;5.24;100.00;95231.00;7431977;19;20335;-89
2023/12/12 06:03:56;;;;;;;7.50;6.00;;;;;;;5.81;100.00;95311.31;7431703;19;20390;-89
2023/12/12 06:25:22;;;;;;;6.50;3.90;;;;;;;5.83;100.00;95177.16;7400371;19;20442;-90
2023/12/12 06:47:22;;;;;;;11.07;5.23;;;;;;;5.84;100.00;95308.91;7389137;19;20467;31
2023/12/12 06:50:15;;;;;;;10.70;5.23;;;;;;;4.54;100.00;95122.13;7376599;19;20432;-96
2023/12/12 06:57:38;;;;;;;9.50;3.87;;;;;;;5.86;100.00;95293.75;7425921;19;20450;-96
2023/12/12 07:00:31;;;;;;;6.60;3.60;;;;;;;5.26;100.00;95174.25;7434646;19;20390;-96
2023/12/12 07:24:59;;;;;;;22.80;17.60;;;;;;;6.23;100.00;95271.81;7320757;19;20338;31
2023/12/12 07:41:21;;;;;;;13.30;7.20;;;;;;;6.15;100.00;95282.19;7441013;19;20386;-93
2023/12/12 07:44:34;;;;;;;8.43;6.13;;;;;;;5.86;100.00;95262.50;7438815;19;20384;-93
2023/12/12 07:51:11;;;;;;;16.63;8.23;;;;;;;5.71;100.00;95208.19;7436234;19;20369;-92
2023/12/12 08:55:31;;;;;;;16.90;5.90;;;;;;;6.87;100.00;95251.50;7433656;19;20371;-93
2023/12/12 08:58:54;;;;;;;11.30;4.50;;;;;;;7.19;100.00;95249.66;7439002;19;20367;-92
2023/12/12 09:02:13;;;;;;;;;;;;;;;;;;;;;
2023/12/12 10:38:47;;;;;;;41.73;24.20;;;;;;;8.13;100.00;95062.75;7426343;19;20426;-91
2023/12/12 11:01:02;;;;;;;;;;;;;;;;;;;;;
2023/12/12 11:38:46;;;;;;;15.80;5.40;;;;;;;9.22;100.00;95130.81;7324105;19;20450;31
2023/12/12 12:55:01;;;;;;;15.60;4.40;;;;;;;9.16;100.00;94951.47;7426798;19;20390;-89
2023/12/12 13:07:24;;;;;;;9.83;4.93;;;;;;;9.22;100.00;94973.75;7428860;19;20422;-94
2023/12/12 14:30:16;;;;;;;13.37;9.00;;;;;;;8.51;100.00;94918.16;7339853;19;20487;-90
2023/12/12 14:33:55;;;;;;;12.53;8.37;;;;;;;8.49;100.00;94908.00;7346229;19;20435;-89
2023/12/12 14:37:56;;;;;;;10.80;9.70;;;;;;;8.32;100.00;94913.38;7466268;19;20356;-91
2023/12/12 14:41:28;;;;;;;14.20;9.37;;;;;;;8.29;100.00;94895.72;7465755;19;20352;-90
2023/12/12 14:50:38;;;;;;;16.80;10.50;;;;;;;7.76;100.00;94782.94;7453628;19;20436;-91
2023/12/12 15:03:02;;;;;;;12.10;10.40;;;;;;;7.76;100.00;94763.91;7379479;19;20459;-92
2023/12/12 15:34:47;;;;;;;;;;;;;;;;;;;;;
2023/12/12 15:45:04;;;;;;;14.83;12.17;;;;;;;8.43;100.00;94823.03;7435191;19;20349;-90
2023/12/12 15:57:55;;;;;;;14.60;10.93;;;;;;;7.85;100.00;94733.28;7424975;19;20369;-96
2023/12/12 16:16:49;;;;;;;11.47;10.30;;;;;;;8.25;100.00;94772.00;7415858;19;20451;-96
2023/12/12 16:22:38;;;;;;;12.97;9.87;;;;;;;6.78;100.00;94556.44;7427791;19;20486;-96
2023/12/12 16:29:30;;;;;;;13.30;9.87;;;;;;;8.09;100.00;94753.50;7413622;19;20479;-96
2023/12/12 16:32:48;;;;;;;;;;;;;;;;;;;;;
2023/12/12 16:36:21;;;;;;;14.70;10.97;;;;;;;8.09;100.00;94731.81;7410182;19;20462;-96
2023/12/12 16:39:41;;;;;;;11.33;10.10;;;;;;;7.70;100.00;94671.91;7428140;19;20445;-96
2023/12/12 16:42:41;;;;;;;11.47;10.33;;;;;;;7.67;100.00;94667.34;7426649;19;20396;-97
2023/12/12 16:46:04;;;;;;;14.53;12.97;;;;;;;7.99;100.00;94705.03;7427289;19;20490;-96
2023/12/12 16:49:17;;;;;;;13.93;12.50;;;;;;;7.28;100.00;94608.53;7426658;19;20392;-96
2023/12/12 16:52:38;;;;;;;13.47;12.07;;;;;;;7.40;100.00;94618.25;7414633;19;20455;-96
2023/12/12 17:27:36;;;;;;;14.70;12.77;;;;;;;8.12;100.00;94686.78;7424070;19;20412;-96
2023/12/12 18:03:28;;;;;;;13.50;11.70;;;;;;;7.75;100.00;94623.97;7424283;19;20364;-96
2023/12/12 18:06:24;;;;;;;13.07;11.70;;;;;;;7.45;100.00;94592.00;7424321;19;20357;-96
2023/12/12 18:09:37;;;;;;;14.97;13.37;;;;;;;7.22;100.00;94538.63;7423137;19;20383;-96
2023/12/12 18:15:42;;;;;;;14.27;12.33;;;;;;;8.03;100.00;94663.34;7421257;19;20471;-96
2023/12/12 18:18:36;;;;;;;12.80;11.50;;;;;;;7.53;100.00;94593.00;7423921;19;20371;-96
2023/12/12 18:21:56;;;;;;;11.77;10.57;;;;;;;8.19;100.00;94674.72;7424758;19;20400;-96
2023/12/12 18:25:00;;;;;;;11.10;9.93;;;;;;;7.93;100.00;94633.16;7402440;19;20448;-89
2023/12/12 18:27:54;;;;;;;11.83;10.77;;;;;;;7.76;100.00;94596.78;7429346;19;20411;-96
2023/12/12 18:30:58;;;;;;;;;;;;;;;;;;;;;
2023/12/12 18:34:24;;;;;;;;;;;;;;;;;;;;;
2023/12/12 18:37:28;;;;;;;13.13;11.80;;;;;;;7.45;100.00;94592.00;7430340;19;20368;-96
2023/12/12 18:40:45;;;;;;;14.30;10.23;;;;;;;7.91;100.00;94645.78;7429360;19;20391;-96
2023/12/12 18:43:43;;;;;;;11.23;10.20;;;;;;;7.56;100.00;94571.47;7409831;19;20459;-96
2023/12/12 18:46:41;;;;;;;12.00;10.87;;;;;;;7.50;100.00;94565.69;7428351;19;20361;-96
2023/12/12 18:49:50;;;;;;;11.70;10.60;;;;;;;7.94;100.00;94655.59;7427148;19;20402;-96
2023/12/12 18:52:54;;;;;;;13.30;11.97;;;;;;;7.46;100.00;94578.63;7428008;19;20392;-96
2023/12/12 18:55:58;;;;;;;14.20;12.80;;;;;;;7.66;100.00;94618.81;7422135;19;20377;-96
2023/12/12 18:58:54;;;;;;;13.63;12.23;;;;;;;7.29;100.00;94568.31;7403249;19;20368;-93
2023/12/12 19:01:42;;;;;;;15.07;11.37;;;;;;;7.52;100.00;94605.28;7403860;19;20620;-93
2023/12/12 19:04:59;;;;;;;15.50;13.70;;;;;;;7.37;100.00;94577.91;7401736;19;20381;-94
2023/12/12 19:08:02;;;;;;;14.97;12.53;;;;;;;7.49;100.00;94584.28;7402526;19;20373;-93
2023/12/12 19:11:14;;;;;;;17.30;15.57;;;;;;;7.64;100.00;94604.56;7401092;19;20376;-93
2023/12/12 19:14:09;;;;;;;20.13;15.50;;;;;;;6.81;100.00;94493.22;7402349;19;20896;-94
2023/12/12 19:17:03;;;;;;;19.97;15.17;;;;;;;7.18;100.00;94540.34;7402146;19;20373;-94
2023/12/12 19:20:15;;;;;;;;;;;;;;;;;;;;;
2023/12/12 19:53:11;;;;;;;24.70;16.40;;;;;;;6.74;100.00;94428.53;7398906;19;20400;-93
2023/12/12 19:56:30;;;;;;;19.87;15.00;;;;;;;7.52;100.00;94526.97;7400752;19;20375;-93
2023/12/12 19:59:47;;;;;;;18.63;14.43;;;;;;;7.76;100.00;94594.16;7401141;19;20380;-93
2023/12/12 20:03:08;;;;;;;22.70;16.37;;;;;;;7.72;100.00;94593.28;7398686;19;20391;-93
2023/12/12 20:06:04;;;;;;;19.77;15.97;;;;;;;7.05;100.00;94488.13;7400856;19;20408;-93
2023/12/12 20:09:11;;;;;;;22.30;16.63;;;;;;;7.17;100.00;94513.47;7400475;19;20368;-93
2023/12/12 20:12:27;;;;;;;21.80;16.23;;;;;;;7.73;100.00;94590.34;7399197;19;20409;-93
2023/12/12 20:15:24;;;;;;;19.17;15.63;;;;;;;7.37;100.00;94536.16;7400588;19;20402;-94
2023/12/12 20:18:23;;;;;;;20.10;17.13;;;;;;;7.05;100.00;94477.69;7400717;19;20389;-94
2023/12/12 20:21:30;;;;;;;21.93;18.43;;;;;;;7.82;100.00;94577.19;7399494;19;20400;-93
2023/12/12 20:24:28;;;;;;;19.30;16.17;;;;;;;7.68;100.00;94548.00;7400209;19;20365;-93
2023/12/12 20:27:44;;;;;;;21.33;14.67;;;;;;;8.11;100.00;94604.28;7399639;19;20387;-93
2023/12/12 20:30:40;;;;;;;18.23;15.67;;;;;;;7.49;100.00;94527.63;7398732;19;20411;-93
2023/12/12 20:33:58;;;;;;;21.83;15.67;;;;;;;7.55;100.00;94531.53;7399511;19;20357;-93
2023/12/12 20:37:00;;;;;;;23.43;17.10;;;;;;;7.12;100.00;94474.53;7399683;19;20388;-92
2023/12/12 20:40:04;;;;;;;22.00;16.70;;;;;;;7.44;100.00;94543.50;7400312;19;20408;-94
2023/12/12 20:43:52;;;;;;;20.20;15.67;;;;;;;7.67;100.00;94562.91;7397900;19;20405;-94
2023/12/12 20:47:38;;;;;;;;;;;;;;;;;;;;;
2023/12/12 20:51:31;;;;;;;24.97;17.43;;;;;;;6.93;100.00;94462.00;7395170;19;20392;-93
2023/12/12 20:54:36;;;;;;;17.40;15.60;;;;;;;7.29;100.00;94491.88;7398976;19;20381;-93
2023/12/12 20:57:56;;;;;;;25.87;17.90;;;;;;;7.76;100.00;94558.38;7399101;19;20882;-93
2023/12/12 21:00:56;;;;;;;28.37;19.37;;;;;;;7.24;100.00;94468.59;7398524;19;20381;-93
2023/12/12 21:03:56;;;;;;;24.90;19.00;;;;;;;7.62;100.00;94520.59;7398822;19;20361;-93
2023/12/12 21:07:01;;;;;;;27.50;18.27;;;;;;;8.03;100.00;94549.16;7398819;19;20790;-93
2023/12/12 21:09:59;;;;;;;20.33;15.77;;;;;;;7.96;100.00;94522.81;7398307;19;20372;-93
2023/12/12 21:12:38;;;;;;;23.10;17.17;;;;;;;7.54;100.00;94459.53;7397081;19;20408;-93
2023/12/12 21:15:24;;;;;;;27.30;16.73;;;;;;;6.89;100.00;94356.78;7398870;19;20388;-93
2023/12/12 21:17:54;;;;;;;25.93;17.43;;;;;;;7.01;100.00;94385.50;7398682;19;20368;-93
2023/12/12 21:20:24;;;;;;;23.23;17.60;;;;;;;8.15;100.00;94550.28;7399435;19;20396;-93
2023/12/12 21:22:56;;;;;;;25.70;17.17;;;;;;;8.07;100.00;94554.50;7397437;19;20408;-93
2023/12/12 21:25:51;;;;;;;28.17;18.77;;;;;;;7.54;100.00;94435.28;7399869;19;20390;-93
2023/12/12 21:28:30;;;;;;;27.17;19.10;;;;;;;7.60;100.00;94465.34;7400451;19;20869;-93
2023/12/12 21:31:19;;;;;;;28.70;19.27;;;;;;;6.95;100.00;94370.41;7399705;19;20373;-93
2023/12/12 21:34:11;;;;;;;28.83;20.43;;;;;;;7.24;100.00;94411.97;7400594;19;20413;-93
2023/12/12 21:37:03;;;;;;;30.47;18.73;;;;;;;7.39;100.00;94402.75;7400118;19;20405;-93
2023/12/12 21:39:36;;;;;;;33.23;19.90;;;;;;;7.09;100.00;94363.81;7398241;19;20381;-94
2023/12/12 21:42:06;;;;;;;32.63;20.67;;;;;;;7.09;100.00;94363.03;7396303;19;20424;-93
2023/12/12 21:44:36;;;;;;;30.47;18.77;;;;;;;7.05;100.00;94357.72;7398739;19;20381;-93
2023/12/12 21:47:08;;;;;;;27.73;17.67;;;;;;;7.37;100.00;94368.41;7398251;19;20770;-93
2023/12/12 21:49:37;;;;;;;30.00;18.90;;;;;;;7.67;100.00;94432.38;7398645;19;20384;-94
2023/12/12 21:52:09;;;;;;;29.43;18.27;;;;;;;7.81;100.00;94460.00;7397094;19;20456;-92
2023/12/12 21:55:02;;;;;;;25.77;16.60;;;;;;;7.33;100.00;94370.91;7398132;19;20384;-93
2023/12/12 22:01:25;;;;;;;27.13;17.00;;;;;;;7.44;100.00;94400.72;7396972;19;20431;-93
2023/12/12 22:04:18;;;;;;;30.17;18.43;;;;;;;7.49;100.00;94412.78;7398081;19;20380;-93
2023/12/12 22:07:03;;;;;;;29.00;17.07;;;;;;;7.59;100.00;94420.19;7398541;19;20384;-93
2023/12/12 22:09:43;;;;;;;27.40;17.67;;;;;;;7.41;100.00;94400.59;7398359;19;20357;-92
2023/12/12 22:12:21;;;;;;;30.90;18.37;;;;;;;7.36;100.00;94372.88;7403264;19;20415;-93
2023/12/12 22:15:53;;;;;;;20.70;15.47;;;;;;;7.63;100.00;94386.38;7405509;19;20365;-93
2023/12/12 22:18:52;;;;;;;17.90;14.07;;;;;;;8.18;100.00;94466.00;7404866;19;20380;-93
2023/12/12 22:22:18;;;;;;;16.27;13.13;;;;;;;8.14;100.00;94470.38;7403472;19;20427;-92
2023/12/12 22:25:31;;;;;;;15.60;11.93;;;;;;;7.69;100.00;94385.03;7404999;19;20416;-92
2023/12/12 22:28:44;;;;;;;18.83;13.10;;;;;;;8.25;100.00;94472.22;7404131;19;20379;-92
2023/12/12 22:31:48;;;;;;;14.87;11.60;;;;;;;8.31;100.00;94478.72;7402011;19;20416;-93
2023/12/12 22:34:30;;;;;;;16.17;12.40;;;;;;;7.50;100.00;94380.38;7404117;19;20396;-93
2023/12/12 22:37:13;;;;;;;12.70;10.53;;;;;;;8.03;100.00;94436.84;7403480;19;20384;-92
2023/12/12 22:40:13;;;;;;;12.73;10.50;;;;;;;8.27;100.00;94477.13;7403853;19;20407;-92
2023/12/12 22:43:13;;;;;;;14.57;11.47;;;;;;;8.29;100.00;94477.53;7401252;19;20408;-92
2023/12/12 22:45:55;;;;;;;13.67;10.40;;;;;;;7.56;100.00;94365.25;7401307;19;20428;-92
2023/12/12 22:48:37;;;;;;;12.50;10.77;;;;;;;7.75;100.00;94388.97;7403551;19;20380;-93
2023/12/12 22:51:22;;;;;;;13.13;9.50;;;;;;;7.86;100.00;94400.50;7401163;19;20751;-92
2023/12/12 22:54:04;;;;;;;14.67;10.70;;;;;;;6.94;100.00;94257.53;7402384;19;20451;-92
2023/12/12 22:56:46;;;;;;;13.50;9.80;;;;;;;7.89;100.00;94405.06;7403292;19;20368;-92
2023/12/12 22:59:28;;;;;;;13.47;10.70;;;;;;;8.09;100.00;94454.91;7402447;19;20384;-92
2023/12/12 23:02:11;;;;;;;15.47;11.17;;;;;;;6.95;100.00;94285.13;7400847;19;20739;-93
2023/12/12 23:04:56;;;;;;;15.53;11.80;;;;;;;7.27;100.00;94329.69;7403281;19;20385;-93
2023/12/12 23:07:38;;;;;;;14.03;11.47;;;;;;;6.86;100.00;94280.00;7403727;19;20396;-92
2023/12/12 23:10:22;;;;;;;15.80;11.80;;;;;;;7.72;100.00;94397.47;7402003;19;20445;-93
2023/12/12 23:13:04;;;;;;;17.40;12.20;;;;;;;7.38;100.00;94360.25;7402505;19;20384;-92
2023/12/12 23:15:46;;;;;;;22.93;15.47;;;;;;;7.46;100.00;94376.91;7402085;19;20368;-92
2023/12/12 23:18:28;;;;;;;23.40;13.53;;;;;;;7.21;100.00;94329.16;7401863;19;20873;-93
2023/12/12 23:21:10;;;;;;;15.57;12.20;;;;;;;7.30;100.00;94342.84;7400907;19;20429;-93
2023/12/12 23:23:51;;;;;;;18.03;12.83;;;;;;;6.80;100.00;94276.09;7403112;19;20397;-93
2023/12/12 23:26:34;;;;;;;20.23;12.23;;;;;;;7.07;100.00;94274.69;7402904;19;20397;-93
2023/12/12 23:29:15;;;;;;;13.97;12.50;;;;;;;7.03;100.00;94275.66;7402398;19;20389;-92
2023/12/12 23:31:57;;;;;;;17.00;14.00;;;;;;;7.33;100.00;94310.13;7399466;19;20451;-93
2023/12/12 23:34:44;;;;;;;16.43;12.57;;;;;;;6.93;100.00;94252.63;7401277;19;20396;-92
2023/12/12 23:37:26;;;;;;;13.30;11.07;;;;;;;7.61;100.00;94349.38;7401430;19;20391;-93
2023/12/12 23:40:09;;;;;;;18.67;13.67;;;;;;;6.93;100.00;94250.78;7403037;19;20683;-93
2023/12/12 23:42:51;;;;;;;15.37;11.83;;;;;;;7.16;100.00;94274.56;7399351;19;20495;-93
2023/12/12 23:45:32;;;;;;;20.03;14.30;;;;;;;7.22;100.00;94275.88;7399208;19;20471;-93
2023/12/12 23:48:14;;;;;;;23.73;16.63;;;;;;;7.18;100.00;94275.03;7400787;19;20389;-92
2023/12/12 23:50:55;;;;;;;28.77;18.50;;;;;;;7.46;100.00;94298.63;7401565;19;20373;-93
2023/12/12 23:53:37;;;;;;;38.97;21.63;;;;;;;7.55;100.00;94324.56;7400943;19;20404;-93
2023/12/12 23:56:42;;;;;;;38.63;20.20;;;;;;;7.46;100.00;94312.41;7401901;19;20422;-93
2023/12/12 23:59:23;;;;;;;25.47;18.17;;;;;;;7.59;100.00;94322.84;7400287;19;20393;-92
